sensor_id;sensor_type;location;lat;lon;timestamp;temperature;humidity
6538;DHT22;3302;52.508;13.454;2023-05-27T00:02:25;12.00;77.30
6538;DHT22;3302;52.508;13.454;2023-05-27T00:04:51;12.20;77.10
6538;DHT22;3302;52.508;13.454;2023-05-27T00:07:17;11.90;77.70
6538;DHT22;3302;52.508;13.454;2023-05-27T00:09:43;12.00;77.70
6538;DHT22;3302;52.508;13.454;2023-05-27T00:12:08;12.00;78.50
6538;DHT22;3302;52.508;13.454;2023-05-27T00:14:34;12.00;78.70
6538;DHT22;3302;52.508;13.454;2023-05-27T00:17:00;11.90;78.70
6538;DHT22;3302;52.508;13.454;2023-05-27T00:19:27;11.90;80.20
6538;DHT22;3302;52.508;13.454;2023-05-27T00:21:55;11.80;79.80
6538;DHT22;3302;52.508;13.454;2023-05-27T00:24:22;11.80;79.70
6538;DHT22;3302;52.508;13.454;2023-05-27T00:26:48;11.70;80.50
6538;DHT22;3302;52.508;13.454;2023-05-27T00:29:16;11.70;80.90
6538;DHT22;3302;52.508;13.454;2023-05-27T00:31:42;11.70;80.80
6538;DHT22;3302;52.508;13.454;2023-05-27T00:34:09;11.70;81.30
6538;DHT22;3302;52.508;13.454;2023-05-27T00:36:35;11.60;81.60
6538;DHT22;3302;52.508;13.454;2023-05-27T00:39:01;11.60;82.30
6538;DHT22;3302;52.508;13.454;2023-05-27T00:41:28;11.50;82.60
6538;DHT22;3302;52.508;13.454;2023-05-27T00:43:55;11.60;82.50
6538;DHT22;3302;52.508;13.454;2023-05-27T00:46:22;11.60;82.60
6538;DHT22;3302;52.508;13.454;2023-05-27T00:48:48;11.50;83.00
6538;DHT22;3302;52.508;13.454;2023-05-27T00:51:14;11.60;82.70
6538;DHT22;3302;52.508;13.454;2023-05-27T00:53:42;11.50;83.10
6538;DHT22;3302;52.508;13.454;2023-05-27T00:56:09;11.40;83.70
6538;DHT22;3302;52.508;13.454;2023-05-27T00:58:36;11.40;83.90
6538;DHT22;3302;52.508;13.454;2023-05-27T01:01:02;11.50;83.80
6538;DHT22;3302;52.508;13.454;2023-05-27T01:03:29;11.40;83.80
6538;DHT22;3302;52.508;13.454;2023-05-27T01:09:02;11.50;84.00
6538;DHT22;3302;52.508;13.454;2023-05-27T01:11:39;11.30;84.60
6538;DHT22;3302;52.508;13.454;2023-05-27T01:14:11;11.30;85.20
6538;DHT22;3302;52.508;13.454;2023-05-27T01:16:38;11.30;85.30
6538;DHT22;3302;52.508;13.454;2023-05-27T01:19:14;11.30;85.60
6538;DHT22;3302;52.508;13.454;2023-05-27T01:21:41;11.20;86.10
6538;DHT22;3302;52.508;13.454;2023-05-27T01:24:10;11.30;86.10
6538;DHT22;3302;52.508;13.454;2023-05-27T01:26:37;11.10;86.70
6538;DHT22;3302;52.508;13.454;2023-05-27T01:29:03;11.10;86.70
6538;DHT22;3302;52.508;13.454;2023-05-27T01:31:51;11.00;87.30
6538;DHT22;3302;52.508;13.454;2023-05-27T01:34:26;11.10;86.80
6538;DHT22;3302;52.508;13.454;2023-05-27T01:36:56;11.10;86.50
6538;DHT22;3302;52.508;13.454;2023-05-27T01:39:25;11.30;86.60
6538;DHT22;3302;52.508;13.454;2023-05-27T01:41:52;11.20;86.80
6538;DHT22;3302;52.508;13.454;2023-05-27T01:44:18;11.30;86.40
6538;DHT22;3302;52.508;13.454;2023-05-27T01:46:45;11.30;86.30
6538;DHT22;3302;52.508;13.454;2023-05-27T01:49:10;11.40;85.90
6538;DHT22;3302;52.508;13.454;2023-05-27T01:51:36;11.40;86.40
6538;DHT22;3302;52.508;13.454;2023-05-27T01:54:02;11.40;86.40
6538;DHT22;3302;52.508;13.454;2023-05-27T01:56:28;11.10;87.20
6538;DHT22;3302;52.508;13.454;2023-05-27T01:58:55;11.10;87.40
6538;DHT22;3302;52.508;13.454;2023-05-27T02:01:20;11.00;87.90
6538;DHT22;3302;52.508;13.454;2023-05-27T02:03:48;11.10;88.00
6538;DHT22;3302;52.508;13.454;2023-05-27T02:06:14;11.10;87.70
6538;DHT22;3302;52.508;13.454;2023-05-27T02:08:40;11.00;88.60
6538;DHT22;3302;52.508;13.454;2023-05-27T02:11:05;10.90;88.80
6538;DHT22;3302;52.508;13.454;2023-05-27T02:13:31;11.10;88.50
6538;DHT22;3302;52.508;13.454;2023-05-27T02:15:57;11.10;88.00
6538;DHT22;3302;52.508;13.454;2023-05-27T02:18:23;11.10;88.10
6538;DHT22;3302;52.508;13.454;2023-05-27T02:20:50;11.10;88.00
6538;DHT22;3302;52.508;13.454;2023-05-27T02:23:16;11.20;89.00
6538;DHT22;3302;52.508;13.454;2023-05-27T02:25:44;11.20;88.10
6538;DHT22;3302;52.508;13.454;2023-05-27T02:28:09;11.20;87.90
6538;DHT22;3302;52.508;13.454;2023-05-27T02:30:35;11.00;89.00
6538;DHT22;3302;52.508;13.454;2023-05-27T02:33:01;11.00;89.10
6538;DHT22;3302;52.508;13.454;2023-05-27T02:35:27;10.80;89.90
6538;DHT22;3302;52.508;13.454;2023-05-27T02:37:53;10.80;90.30
6538;DHT22;3302;52.508;13.454;2023-05-27T02:40:25;10.70;90.50
6538;DHT22;3302;52.508;13.454;2023-05-27T02:42:51;10.90;90.00
6538;DHT22;3302;52.508;13.454;2023-05-27T02:45:17;10.90;90.30
6538;DHT22;3302;52.508;13.454;2023-05-27T02:47:43;11.00;90.10
6538;DHT22;3302;52.508;13.454;2023-05-27T02:50:09;10.90;90.10
6538;DHT22;3302;52.508;13.454;2023-05-27T02:52:35;10.80;90.50
6538;DHT22;3302;52.508;13.454;2023-05-27T02:55:01;10.80;90.50
6538;DHT22;3302;52.508;13.454;2023-05-27T02:57:27;10.70;90.80
6538;DHT22;3302;52.508;13.454;2023-05-27T02:59:52;10.80;90.70
6538;DHT22;3302;52.508;13.454;2023-05-27T03:02:18;10.90;90.60
6538;DHT22;3302;52.508;13.454;2023-05-27T03:04:44;10.90;90.50
6538;DHT22;3302;52.508;13.454;2023-05-27T03:07:11;10.60;91.30
6538;DHT22;3302;52.508;13.454;2023-05-27T03:09:36;10.50;91.60
6538;DHT22;3302;52.508;13.454;2023-05-27T03:12:02;10.60;91.40
6538;DHT22;3302;52.508;13.454;2023-05-27T03:14:28;10.60;91.60
6538;DHT22;3302;52.508;13.454;2023-05-27T03:16:54;10.60;91.70
6538;DHT22;3302;52.508;13.454;2023-05-27T03:19:20;10.80;91.20
6538;DHT22;3302;52.508;13.454;2023-05-27T03:21:47;10.60;91.50
6538;DHT22;3302;52.508;13.454;2023-05-27T03:24:13;10.60;91.70
6538;DHT22;3302;52.508;13.454;2023-05-27T03:26:39;10.60;92.00
6538;DHT22;3302;52.508;13.454;2023-05-27T03:29:05;10.60;91.80
6538;DHT22;3302;52.508;13.454;2023-05-27T03:31:31;10.70;91.70
6538;DHT22;3302;52.508;13.454;2023-05-27T03:33:58;10.50;92.00
6538;DHT22;3302;52.508;13.454;2023-05-27T03:36:24;10.60;92.00
6538;DHT22;3302;52.508;13.454;2023-05-27T03:38:49;10.60;92.00
6538;DHT22;3302;52.508;13.454;2023-05-27T03:41:15;10.60;92.00
6538;DHT22;3302;52.508;13.454;2023-05-27T03:43:41;10.60;92.20
6538;DHT22;3302;52.508;13.454;2023-05-27T03:46:07;10.50;92.50
6538;DHT22;3302;52.508;13.454;2023-05-27T03:48:34;10.50;92.60
6538;DHT22;3302;52.508;13.454;2023-05-27T03:50:59;10.50;92.60
6538;DHT22;3302;52.508;13.454;2023-05-27T03:53:25;10.50;92.70
6538;DHT22;3302;52.508;13.454;2023-05-27T03:55:51;10.60;92.50
6538;DHT22;3302;52.508;13.454;2023-05-27T03:58:17;10.50;92.90
6538;DHT22;3302;52.508;13.454;2023-05-27T04:00:43;10.40;93.00
6538;DHT22;3302;52.508;13.454;2023-05-27T04:03:09;10.60;92.70
6538;DHT22;3302;52.508;13.454;2023-05-27T04:05:35;10.50;92.90
6538;DHT22;3302;52.508;13.454;2023-05-27T04:08:02;10.40;93.20
6538;DHT22;3302;52.508;13.454;2023-05-27T04:10:30;10.50;93.10
6538;DHT22;3302;52.508;13.454;2023-05-27T04:12:55;10.50;93.20
6538;DHT22;3302;52.508;13.454;2023-05-27T04:15:21;10.50;93.20
6538;DHT22;3302;52.508;13.454;2023-05-27T04:17:47;10.70;92.90
6538;DHT22;3302;52.508;13.454;2023-05-27T04:20:14;10.60;93.20
6538;DHT22;3302;52.508;13.454;2023-05-27T04:22:41;10.70;92.90
6538;DHT22;3302;52.508;13.454;2023-05-27T04:25:07;10.80;92.80
6538;DHT22;3302;52.508;13.454;2023-05-27T04:27:33;10.90;92.50
6538;DHT22;3302;52.508;13.454;2023-05-27T04:29:59;11.00;92.10
6538;DHT22;3302;52.508;13.454;2023-05-27T04:32:26;10.90;92.70
6538;DHT22;3302;52.508;13.454;2023-05-27T04:34:53;10.90;92.50
6538;DHT22;3302;52.508;13.454;2023-05-27T04:37:19;10.80;92.70
6538;DHT22;3302;52.508;13.454;2023-05-27T04:39:48;10.80;93.00
6538;DHT22;3302;52.508;13.454;2023-05-27T04:42:14;10.80;92.90
6538;DHT22;3302;52.508;13.454;2023-05-27T04:44:41;10.90;92.80
6538;DHT22;3302;52.508;13.454;2023-05-27T04:47:07;10.80;92.90
6538;DHT22;3302;52.508;13.454;2023-05-27T04:49:33;10.80;93.10
6538;DHT22;3302;52.508;13.454;2023-05-27T04:52:01;11.00;92.80
6538;DHT22;3302;52.508;13.454;2023-05-27T04:54:27;11.20;92.50
6538;DHT22;3302;52.508;13.454;2023-05-27T04:56:53;11.20;92.40
6538;DHT22;3302;52.508;13.454;2023-05-27T04:59:19;11.10;92.70
6538;DHT22;3302;52.508;13.454;2023-05-27T05:01:47;11.30;92.30
6538;DHT22;3302;52.508;13.454;2023-05-27T05:04:39;11.30;92.10
6538;DHT22;3302;52.508;13.454;2023-05-27T05:07:05;11.30;92.30
6538;DHT22;3302;52.508;13.454;2023-05-27T05:09:31;11.40;92.20
6538;DHT22;3302;52.508;13.454;2023-05-27T05:11:57;11.50;91.80
6538;DHT22;3302;52.508;13.454;2023-05-27T05:14:23;11.70;91.40
6538;DHT22;3302;52.508;13.454;2023-05-27T05:16:48;11.60;91.40
6538;DHT22;3302;52.508;13.454;2023-05-27T05:19:14;11.70;91.20
6538;DHT22;3302;52.508;13.454;2023-05-27T05:21:40;11.70;91.10
6538;DHT22;3302;52.508;13.454;2023-05-27T05:24:06;11.70;91.30
6538;DHT22;3302;52.508;13.454;2023-05-27T05:26:32;12.00;90.90
6538;DHT22;3302;52.508;13.454;2023-05-27T05:28:58;12.00;90.50
6538;DHT22;3302;52.508;13.454;2023-05-27T05:31:24;11.90;90.70
6538;DHT22;3302;52.508;13.454;2023-05-27T05:33:49;12.00;90.50
6538;DHT22;3302;52.508;13.454;2023-05-27T05:36:15;12.20;89.70
6538;DHT22;3302;52.508;13.454;2023-05-27T05:38:42;12.30;88.80
6538;DHT22;3302;52.508;13.454;2023-05-27T05:41:08;12.40;87.60
6538;DHT22;3302;52.508;13.454;2023-05-27T05:43:33;12.40;85.90
6538;DHT22;3302;52.508;13.454;2023-05-27T05:45:59;12.50;86.00
6538;DHT22;3302;52.508;13.454;2023-05-27T05:48:27;12.70;84.70
6538;DHT22;3302;52.508;13.454;2023-05-27T05:50:53;12.60;83.60
6538;DHT22;3302;52.508;13.454;2023-05-27T05:53:18;12.70;82.80
6538;DHT22;3302;52.508;13.454;2023-05-27T05:55:44;12.80;82.50
6538;DHT22;3302;52.508;13.454;2023-05-27T05:58:10;12.70;81.20
6538;DHT22;3302;52.508;13.454;2023-05-27T06:00:36;12.90;81.10
6538;DHT22;3302;52.508;13.454;2023-05-27T06:03:02;13.10;79.70
6538;DHT22;3302;52.508;13.454;2023-05-27T06:05:27;13.10;78.40
6538;DHT22;3302;52.508;13.454;2023-05-27T06:07:53;13.00;77.40
6538;DHT22;3302;52.508;13.454;2023-05-27T06:10:19;13.20;76.00
6538;DHT22;3302;52.508;13.454;2023-05-27T06:12:45;13.30;74.90
6538;DHT22;3302;52.508;13.454;2023-05-27T06:15:11;13.40;74.20
6538;DHT22;3302;52.508;13.454;2023-05-27T06:17:37;13.50;73.90
6538;DHT22;3302;52.508;13.454;2023-05-27T06:20:04;13.40;73.70
6538;DHT22;3302;52.508;13.454;2023-05-27T06:22:30;13.50;70.00
6538;DHT22;3302;52.508;13.454;2023-05-27T06:24:55;13.60;68.10
6538;DHT22;3302;52.508;13.454;2023-05-27T06:27:21;13.70;67.60
6538;DHT22;3302;52.508;13.454;2023-05-27T06:29:47;13.70;66.40
6538;DHT22;3302;52.508;13.454;2023-05-27T06:32:13;13.90;65.10
6538;DHT22;3302;52.508;13.454;2023-05-27T06:34:38;13.90;64.20
6538;DHT22;3302;52.508;13.454;2023-05-27T06:37:04;14.10;63.30
6538;DHT22;3302;52.508;13.454;2023-05-27T06:39:30;14.30;63.00
6538;DHT22;3302;52.508;13.454;2023-05-27T06:41:56;14.30;60.00
6538;DHT22;3302;52.508;13.454;2023-05-27T06:44:22;14.40;56.90
6538;DHT22;3302;52.508;13.454;2023-05-27T06:46:47;14.40;55.70
6538;DHT22;3302;52.508;13.454;2023-05-27T06:49:13;14.60;56.70
6538;DHT22;3302;52.508;13.454;2023-05-27T06:51:39;14.50;57.80
6538;DHT22;3302;52.508;13.454;2023-05-27T06:54:05;14.50;55.50
6538;DHT22;3302;52.508;13.454;2023-05-27T06:56:31;14.70;55.00
6538;DHT22;3302;52.508;13.454;2023-05-27T06:59:15;14.80;52.40
6538;DHT22;3302;52.508;13.454;2023-05-27T07:01:41;14.80;52.00
6538;DHT22;3302;52.508;13.454;2023-05-27T07:04:07;14.70;51.70
6538;DHT22;3302;52.508;13.454;2023-05-27T07:06:33;14.90;51.90
6538;DHT22;3302;52.508;13.454;2023-05-27T07:08:59;14.90;50.80
6538;DHT22;3302;52.508;13.454;2023-05-27T07:11:24;15.10;49.30
6538;DHT22;3302;52.508;13.454;2023-05-27T07:13:51;15.20;49.90
6538;DHT22;3302;52.508;13.454;2023-05-27T07:16:17;15.10;50.20
6538;DHT22;3302;52.508;13.454;2023-05-27T07:18:43;15.20;50.50
6538;DHT22;3302;52.508;13.454;2023-05-27T07:21:09;15.30;47.60
6538;DHT22;3302;52.508;13.454;2023-05-27T07:23:35;15.40;47.30
6538;DHT22;3302;52.508;13.454;2023-05-27T07:26:00;15.30;47.60
6538;DHT22;3302;52.508;13.454;2023-05-27T07:28:26;15.30;47.00
6538;DHT22;3302;52.508;13.454;2023-05-27T07:30:52;15.10;47.30
6538;DHT22;3302;52.508;13.454;2023-05-27T07:33:18;15.10;47.60
6538;DHT22;3302;52.508;13.454;2023-05-27T07:35:44;15.40;47.80
6538;DHT22;3302;52.508;13.454;2023-05-27T07:38:10;15.40;47.00
6538;DHT22;3302;52.508;13.454;2023-05-27T07:40:36;15.40;46.80
6538;DHT22;3302;52.508;13.454;2023-05-27T07:43:02;15.70;46.60
6538;DHT22;3302;52.508;13.454;2023-05-27T07:45:28;15.60;44.30
6538;DHT22;3302;52.508;13.454;2023-05-27T07:47:54;15.70;44.10
6538;DHT22;3302;52.508;13.454;2023-05-27T07:50:20;15.60;42.10
6538;DHT22;3302;52.508;13.454;2023-05-27T07:52:46;15.50;40.70
6538;DHT22;3302;52.508;13.454;2023-05-27T07:55:12;15.50;42.10
6538;DHT22;3302;52.508;13.454;2023-05-27T07:57:38;15.60;42.70
6538;DHT22;3302;52.508;13.454;2023-05-27T08:00:04;15.80;42.70
6538;DHT22;3302;52.508;13.454;2023-05-27T08:02:33;15.70;43.40
6538;DHT22;3302;52.508;13.454;2023-05-27T08:04:59;16.10;44.30
6538;DHT22;3302;52.508;13.454;2023-05-27T08:07:24;16.20;43.40
6538;DHT22;3302;52.508;13.454;2023-05-27T08:09:51;16.20;40.00
6538;DHT22;3302;52.508;13.454;2023-05-27T08:12:17;16.10;39.40
6538;DHT22;3302;52.508;13.454;2023-05-27T08:14:43;16.10;38.90
6538;DHT22;3302;52.508;13.454;2023-05-27T08:17:10;16.30;36.70
6538;DHT22;3302;52.508;13.454;2023-05-27T08:19:36;16.10;32.40
6538;DHT22;3302;52.508;13.454;2023-05-27T08:22:02;16.10;36.50
6538;DHT22;3302;52.508;13.454;2023-05-27T08:24:29;16.20;36.00
6538;DHT22;3302;52.508;13.454;2023-05-27T08:26:57;16.30;35.00
6538;DHT22;3302;52.508;13.454;2023-05-27T08:29:23;16.20;33.90
6538;DHT22;3302;52.508;13.454;2023-05-27T08:31:53;16.60;34.00
6538;DHT22;3302;52.508;13.454;2023-05-27T08:34:19;16.80;33.60
6538;DHT22;3302;52.508;13.454;2023-05-27T08:36:45;16.80;33.80
6538;DHT22;3302;52.508;13.454;2023-05-27T08:39:10;16.50;33.70
6538;DHT22;3302;52.508;13.454;2023-05-27T08:41:38;16.40;32.80
6538;DHT22;3302;52.508;13.454;2023-05-27T08:44:04;16.60;34.00
6538;DHT22;3302;52.508;13.454;2023-05-27T08:46:30;16.70;33.00
6538;DHT22;3302;52.508;13.454;2023-05-27T08:48:58;17.00;32.60
6538;DHT22;3302;52.508;13.454;2023-05-27T08:51:24;16.80;34.00
6538;DHT22;3302;52.508;13.454;2023-05-27T08:53:51;16.80;32.60
6538;DHT22;3302;52.508;13.454;2023-05-27T08:56:22;17.00;33.90
6538;DHT22;3302;52.508;13.454;2023-05-27T08:58:48;17.00;32.40
6538;DHT22;3302;52.508;13.454;2023-05-27T09:01:18;16.60;34.00
6538;DHT22;3302;52.508;13.454;2023-05-27T09:03:44;16.80;36.00
6538;DHT22;3302;52.508;13.454;2023-05-27T09:06:11;16.80;33.70
6538;DHT22;3302;52.508;13.454;2023-05-27T09:08:37;16.90;34.90
6538;DHT22;3302;52.508;13.454;2023-05-27T09:11:02;17.20;33.80
6538;DHT22;3302;52.508;13.454;2023-05-27T09:13:29;17.40;33.10
6538;DHT22;3302;52.508;13.454;2023-05-27T09:15:59;17.40;32.90
6538;DHT22;3302;52.508;13.454;2023-05-27T09:18:31;17.60;33.10
6538;DHT22;3302;52.508;13.454;2023-05-27T09:20:58;17.60;32.60
6538;DHT22;3302;52.508;13.454;2023-05-27T09:23:24;17.70;32.30
6538;DHT22;3302;52.508;13.454;2023-05-27T09:25:51;17.80;32.20
6538;DHT22;3302;52.508;13.454;2023-05-27T09:28:24;17.80;32.80
6538;DHT22;3302;52.508;13.454;2023-05-27T09:31:06;17.80;31.30
6538;DHT22;3302;52.508;13.454;2023-05-27T09:33:37;18.00;31.90
6538;DHT22;3302;52.508;13.454;2023-05-27T09:36:05;18.10;32.00
6538;DHT22;3302;52.508;13.454;2023-05-27T09:38:32;18.00;31.30
6538;DHT22;3302;52.508;13.454;2023-05-27T09:40:58;18.10;31.10
6538;DHT22;3302;52.508;13.454;2023-05-27T09:43:25;17.60;30.80
6538;DHT22;3302;52.508;13.454;2023-05-27T09:46:11;17.80;31.70
6538;DHT22;3302;52.508;13.454;2023-05-27T09:48:40;17.70;30.30
6538;DHT22;3302;52.508;13.454;2023-05-27T09:51:06;18.00;30.60
6538;DHT22;3302;52.508;13.454;2023-05-27T09:53:33;17.90;30.30
6538;DHT22;3302;52.508;13.454;2023-05-27T09:56:01;18.20;30.00
6538;DHT22;3302;52.508;13.454;2023-05-27T09:58:27;18.10;29.90
6538;DHT22;3302;52.508;13.454;2023-05-27T10:00:55;18.10;30.60
6538;DHT22;3302;52.508;13.454;2023-05-27T10:03:22;18.20;29.30
6538;DHT22;3302;52.508;13.454;2023-05-27T10:05:50;17.90;28.20
6538;DHT22;3302;52.508;13.454;2023-05-27T10:08:18;18.20;29.50
6538;DHT22;3302;52.508;13.454;2023-05-27T10:10:45;18.40;29.40
6538;DHT22;3302;52.508;13.454;2023-05-27T10:13:14;18.30;29.40
6538;DHT22;3302;52.508;13.454;2023-05-27T10:15:46;18.40;29.30
6538;DHT22;3302;52.508;13.454;2023-05-27T10:18:30;18.30;29.40
6538;DHT22;3302;52.508;13.454;2023-05-27T10:21:03;18.20;29.40
6538;DHT22;3302;52.508;13.454;2023-05-27T10:23:30;18.40;29.70
6538;DHT22;3302;52.508;13.454;2023-05-27T10:26:07;18.30;31.00
6538;DHT22;3302;52.508;13.454;2023-05-27T10:28:39;18.20;30.00
6538;DHT22;3302;52.508;13.454;2023-05-27T10:33:38;18.20;30.40
6538;DHT22;3302;52.508;13.454;2023-05-27T10:38:30;18.20;30.80
6538;DHT22;3302;52.508;13.454;2023-05-27T10:41:00;18.40;31.10
6538;DHT22;3302;52.508;13.454;2023-05-27T10:43:29;18.50;30.60
6538;DHT22;3302;52.508;13.454;2023-05-27T10:46:13;18.70;31.10
6538;DHT22;3302;52.508;13.454;2023-05-27T10:48:38;18.70;30.80
6538;DHT22;3302;52.508;13.454;2023-05-27T10:51:05;18.70;31.00
6538;DHT22;3302;52.508;13.454;2023-05-27T10:53:34;18.90;30.50
6538;DHT22;3302;52.508;13.454;2023-05-27T10:56:01;19.00;30.60
6538;DHT22;3302;52.508;13.454;2023-05-27T10:58:27;18.70;29.70
6538;DHT22;3302;52.508;13.454;2023-05-27T11:00:54;18.60;30.00
6538;DHT22;3302;52.508;13.454;2023-05-27T11:03:22;18.70;29.80
6538;DHT22;3302;52.508;13.454;2023-05-27T11:06:02;18.70;29.90
6538;DHT22;3302;52.508;13.454;2023-05-27T11:08:29;18.70;29.30
6538;DHT22;3302;52.508;13.454;2023-05-27T11:11:03;18.90;30.10
6538;DHT22;3302;52.508;13.454;2023-05-27T11:16:10;18.70;30.00
6538;DHT22;3302;52.508;13.454;2023-05-27T11:18:44;18.70;29.70
6538;DHT22;3302;52.508;13.454;2023-05-27T11:21:11;19.00;29.80
6538;DHT22;3302;52.508;13.454;2023-05-27T11:23:38;19.10;29.70
6538;DHT22;3302;52.508;13.454;2023-05-27T11:26:11;19.00;29.60
6538;DHT22;3302;52.508;13.454;2023-05-27T11:28:38;19.30;29.30
6538;DHT22;3302;52.508;13.454;2023-05-27T11:31:04;19.30;29.00
6538;DHT22;3302;52.508;13.454;2023-05-27T11:33:31;19.40;29.00
6538;DHT22;3302;52.508;13.454;2023-05-27T11:36:10;19.70;29.20
6538;DHT22;3302;52.508;13.454;2023-05-27T11:38:54;19.40;29.40
6538;DHT22;3302;52.508;13.454;2023-05-27T11:41:25;19.30;29.60
6538;DHT22;3302;52.508;13.454;2023-05-27T11:44:04;19.00;29.30
6538;DHT22;3302;52.508;13.454;2023-05-27T11:46:35;19.20;29.70
6538;DHT22;3302;52.508;13.454;2023-05-27T11:49:03;19.20;29.20
6538;DHT22;3302;52.508;13.454;2023-05-27T11:51:29;19.30;29.10
6538;DHT22;3302;52.508;13.454;2023-05-27T11:53:57;19.30;28.70
6538;DHT22;3302;52.508;13.454;2023-05-27T11:56:23;19.50;29.30
6538;DHT22;3302;52.508;13.454;2023-05-27T11:58:51;19.60;28.50
6538;DHT22;3302;52.508;13.454;2023-05-27T12:01:16;19.50;28.10
6538;DHT22;3302;52.508;13.454;2023-05-27T12:03:42;19.60;28.40
6538;DHT22;3302;52.508;13.454;2023-05-27T12:06:08;19.40;28.10
6538;DHT22;3302;52.508;13.454;2023-05-27T12:08:34;19.20;27.80
6538;DHT22;3302;52.508;13.454;2023-05-27T12:11:01;19.30;28.40
6538;DHT22;3302;52.508;13.454;2023-05-27T12:13:26;19.40;28.70
6538;DHT22;3302;52.508;13.454;2023-05-27T12:15:54;19.50;28.90
6538;DHT22;3302;52.508;13.454;2023-05-27T12:18:20;19.80;29.40
6538;DHT22;3302;52.508;13.454;2023-05-27T12:20:46;19.60;27.80
6538;DHT22;3302;52.508;13.454;2023-05-27T12:23:12;19.70;27.60
6538;DHT22;3302;52.508;13.454;2023-05-27T12:25:38;19.70;27.60
6538;DHT22;3302;52.508;13.454;2023-05-27T12:28:05;19.70;28.50
6538;DHT22;3302;52.508;13.454;2023-05-27T12:30:32;19.80;28.40
6538;DHT22;3302;52.508;13.454;2023-05-27T12:32:59;19.60;28.20
6538;DHT22;3302;52.508;13.454;2023-05-27T12:35:25;19.30;28.60
6538;DHT22;3302;52.508;13.454;2023-05-27T12:37:51;19.50;29.00
6538;DHT22;3302;52.508;13.454;2023-05-27T12:40:18;19.70;29.00
6538;DHT22;3302;52.508;13.454;2023-05-27T12:42:43;19.90;28.30
6538;DHT22;3302;52.508;13.454;2023-05-27T12:45:10;20.00;27.30
6538;DHT22;3302;52.508;13.454;2023-05-27T12:47:36;20.00;27.90
6538;DHT22;3302;52.508;13.454;2023-05-27T12:50:03;19.90;27.80
6538;DHT22;3302;52.508;13.454;2023-05-27T12:52:29;20.00;27.40
6538;DHT22;3302;52.508;13.454;2023-05-27T12:54:56;19.90;26.60
6538;DHT22;3302;52.508;13.454;2023-05-27T12:57:22;20.20;27.30
6538;DHT22;3302;52.508;13.454;2023-05-27T12:59:48;20.20;26.40
6538;DHT22;3302;52.508;13.454;2023-05-27T13:02:14;20.00;26.10
6538;DHT22;3302;52.508;13.454;2023-05-27T13:04:40;20.10;26.60
6538;DHT22;3302;52.508;13.454;2023-05-27T13:07:09;20.20;25.90
6538;DHT22;3302;52.508;13.454;2023-05-27T13:09:35;20.30;26.50
6538;DHT22;3302;52.508;13.454;2023-05-27T13:12:00;20.30;26.80
6538;DHT22;3302;52.508;13.454;2023-05-27T13:14:27;20.40;26.30
6538;DHT22;3302;52.508;13.454;2023-05-27T13:16:53;20.40;26.50
6538;DHT22;3302;52.508;13.454;2023-05-27T13:19:20;20.50;26.80
6538;DHT22;3302;52.508;13.454;2023-05-27T13:21:46;20.40;26.90
6538;DHT22;3302;52.508;13.454;2023-05-27T13:24:13;20.30;25.90
6538;DHT22;3302;52.508;13.454;2023-05-27T13:26:38;20.10;26.40
6538;DHT22;3302;52.508;13.454;2023-05-27T13:29:04;20.30;27.20
6538;DHT22;3302;52.508;13.454;2023-05-27T13:31:30;20.20;27.10
6538;DHT22;3302;52.508;13.454;2023-05-27T13:33:56;20.30;27.70
6538;DHT22;3302;52.508;13.454;2023-05-27T13:36:22;20.40;26.90
6538;DHT22;3302;52.508;13.454;2023-05-27T13:38:48;20.60;27.30
6538;DHT22;3302;52.508;13.454;2023-05-27T13:41:14;20.60;27.00
6538;DHT22;3302;52.508;13.454;2023-05-27T13:43:40;20.50;27.30
6538;DHT22;3302;52.508;13.454;2023-05-27T13:46:06;20.30;27.50
6538;DHT22;3302;52.508;13.454;2023-05-27T13:48:32;20.30;27.80
6538;DHT22;3302;52.508;13.454;2023-05-27T13:50:58;20.60;28.30
6538;DHT22;3302;52.508;13.454;2023-05-27T13:53:24;20.90;27.60
6538;DHT22;3302;52.508;13.454;2023-05-27T13:55:50;20.40;27.60
6538;DHT22;3302;52.508;13.454;2023-05-27T13:58:22;20.50;27.50
6538;DHT22;3302;52.508;13.454;2023-05-27T14:00:48;20.50;27.50
6538;DHT22;3302;52.508;13.454;2023-05-27T14:03:14;21.10;27.40
6538;DHT22;3302;52.508;13.454;2023-05-27T14:05:40;21.10;26.70
6538;DHT22;3302;52.508;13.454;2023-05-27T14:08:05;20.80;26.80
6538;DHT22;3302;52.508;13.454;2023-05-27T14:10:33;20.90;27.20
6538;DHT22;3302;52.508;13.454;2023-05-27T14:13:00;21.00;27.50
6538;DHT22;3302;52.508;13.454;2023-05-27T14:15:26;21.40;27.60
6538;DHT22;3302;52.508;13.454;2023-05-27T14:17:54;21.60;27.10
6538;DHT22;3302;52.508;13.454;2023-05-27T14:20:20;21.00;26.60
6538;DHT22;3302;52.508;13.454;2023-05-27T14:22:46;21.20;27.30
6538;DHT22;3302;52.508;13.454;2023-05-27T14:25:12;21.50;26.60
6538;DHT22;3302;52.508;13.454;2023-05-27T14:27:39;21.30;25.90
6538;DHT22;3302;52.508;13.454;2023-05-27T14:30:05;21.50;26.30
6538;DHT22;3302;52.508;13.454;2023-05-27T14:32:31;21.90;25.60
6538;DHT22;3302;52.508;13.454;2023-05-27T14:34:57;22.00;25.20
6538;DHT22;3302;52.508;13.454;2023-05-27T14:37:23;22.10;25.30
6538;DHT22;3302;52.508;13.454;2023-05-27T14:39:51;22.00;25.30
6538;DHT22;3302;52.508;13.454;2023-05-27T14:42:18;22.20;25.50
6538;DHT22;3302;52.508;13.454;2023-05-27T14:44:43;22.10;24.80
6538;DHT22;3302;52.508;13.454;2023-05-27T14:47:09;22.10;24.30
6538;DHT22;3302;52.508;13.454;2023-05-27T14:49:36;22.20;24.90
6538;DHT22;3302;52.508;13.454;2023-05-27T14:52:02;22.20;22.60
6538;DHT22;3302;52.508;13.454;2023-05-27T14:54:27;22.50;23.40
6538;DHT22;3302;52.508;13.454;2023-05-27T14:56:53;22.60;23.00
6538;DHT22;3302;52.508;13.454;2023-05-27T14:59:19;22.90;22.70
6538;DHT22;3302;52.508;13.454;2023-05-27T15:01:47;22.80;22.00
6538;DHT22;3302;52.508;13.454;2023-05-27T15:04:13;22.90;21.20
6538;DHT22;3302;52.508;13.454;2023-05-27T15:06:39;23.00;20.90
6538;DHT22;3302;52.508;13.454;2023-05-27T15:09:05;23.10;21.20
6538;DHT22;3302;52.508;13.454;2023-05-27T15:11:33;23.20;20.70
6538;DHT22;3302;52.508;13.454;2023-05-27T15:14:02;23.30;21.40
6538;DHT22;3302;52.508;13.454;2023-05-27T15:16:27;23.20;20.90
6538;DHT22;3302;52.508;13.454;2023-05-27T15:18:53;23.40;21.30
6538;DHT22;3302;52.508;13.454;2023-05-27T15:21:20;23.70;20.90
6538;DHT22;3302;52.508;13.454;2023-05-27T15:23:46;23.80;21.30
6538;DHT22;3302;52.508;13.454;2023-05-27T15:26:12;23.40;21.30
6538;DHT22;3302;52.508;13.454;2023-05-27T15:28:38;23.60;21.70
6538;DHT22;3302;52.508;13.454;2023-05-27T15:31:03;24.10;21.50
6538;DHT22;3302;52.508;13.454;2023-05-27T15:33:29;24.30;21.60
6538;DHT22;3302;52.508;13.454;2023-05-27T15:35:55;23.60;22.80
6538;DHT22;3302;52.508;13.454;2023-05-27T15:38:21;24.10;22.80
6538;DHT22;3302;52.508;13.454;2023-05-27T15:40:46;24.00;21.80
6538;DHT22;3302;52.508;13.454;2023-05-27T15:43:12;23.30;21.90
6538;DHT22;3302;52.508;13.454;2023-05-27T15:45:39;23.80;23.00
6538;DHT22;3302;52.508;13.454;2023-05-27T15:48:09;23.40;21.60
6538;DHT22;3302;52.508;13.454;2023-05-27T15:50:39;24.10;22.00
6538;DHT22;3302;52.508;13.454;2023-05-27T15:53:05;23.80;22.00
6538;DHT22;3302;52.508;13.454;2023-05-27T15:55:31;23.80;21.60